sensor_id;sensor_type;location;lat;lon;timestamp;temperature;humidity
27224;DHT22;14965;50.660;13.226;2024-02-26T00:00:50;1.90;99.90
27224;DHT22;14965;50.660;13.226;2024-02-26T00:03:16;1.90;99.90
27224;DHT22;14965;50.660;13.226;2024-02-26T00:05:42;1.90;99.90
27224;DHT22;14965;50.660;13.226;2024-02-26T00:08:08;1.80;99.90
27224;DHT22;14965;50.660;13.226;2024-02-26T00:10:34;1.80;99.90
27224;DHT22;14965;50.660;13.226;2024-02-26T00:13:01;1.70;99.90
27224;DHT22;14965;50.660;13.226;2024-02-26T00:15:27;1.70;99.90
27224;DHT22;14965;50.660;13.226;2024-02-26T00:17:53;1.70;99.90
27224;DHT22;14965;50.660;13.226;2024-02-26T00:20:19;1.70;99.90
27224;DHT22;14965;50.660;13.226;2024-02-26T00:22:45;1.70;99.90
27224;DHT22;14965;50.660;13.226;2024-02-26T00:25:11;1.60;99.90
27224;DHT22;14965;50.660;13.226;2024-02-26T00:27:37;1.60;99.90
27224;DHT22;14965;50.660;13.226;2024-02-26T00:30:05;1.70;99.90
27224;DHT22;14965;50.660;13.226;2024-02-26T00:32:32;1.50;99.90
27224;DHT22;14965;50.660;13.226;2024-02-26T00:34:58;1.50;99.90
27224;DHT22;14965;50.660;13.226;2024-02-26T00:37:24;1.60;99.90
27224;DHT22;14965;50.660;13.226;2024-02-26T00:39:50;1.70;99.90
27224;DHT22;14965;50.660;13.226;2024-02-26T00:42:16;1.80;99.90
27224;DHT22;14965;50.660;13.226;2024-02-26T00:44:42;1.80;99.90
27224;DHT22;14965;50.660;13.226;2024-02-26T00:47:09;1.80;99.90
27224;DHT22;14965;50.660;13.226;2024-02-26T00:49:35;1.80;99.90
27224;DHT22;14965;50.660;13.226;2024-02-26T00:52:01;1.80;99.90
27224;DHT22;14965;50.660;13.226;2024-02-26T00:54:27;1.80;99.90
27224;DHT22;14965;50.660;13.226;2024-02-26T00:56:53;1.80;99.90
27224;DHT22;14965;50.660;13.226;2024-02-26T00:59:18;1.80;99.90
27224;DHT22;14965;50.660;13.226;2024-02-26T01:01:44;1.60;99.90
27224;DHT22;14965;50.660;13.226;2024-02-26T01:04:11;1.70;99.90
27224;DHT22;14965;50.660;13.226;2024-02-26T01:06:37;1.50;99.90
27224;DHT22;14965;50.660;13.226;2024-02-26T01:09:03;1.60;99.90
27224;DHT22;14965;50.660;13.226;2024-02-26T01:11:29;1.60;99.90
27224;DHT22;14965;50.660;13.226;2024-02-26T01:13:55;1.70;99.90
27224;DHT22;14965;50.660;13.226;2024-02-26T01:16:21;1.60;99.90
27224;DHT22;14965;50.660;13.226;2024-02-26T01:18:47;1.60;99.90
27224;DHT22;14965;50.660;13.226;2024-02-26T01:21:14;1.60;99.90
27224;DHT22;14965;50.660;13.226;2024-02-26T01:23:40;1.60;99.90
27224;DHT22;14965;50.660;13.226;2024-02-26T01:26:06;1.50;99.90
27224;DHT22;14965;50.660;13.226;2024-02-26T01:28:32;1.60;99.90
27224;DHT22;14965;50.660;13.226;2024-02-26T01:30:58;1.60;99.90
27224;DHT22;14965;50.660;13.226;2024-02-26T01:33:24;1.60;99.90
27224;DHT22;14965;50.660;13.226;2024-02-26T01:35:50;1.40;99.90
27224;DHT22;14965;50.660;13.226;2024-02-26T01:38:18;1.50;99.90
27224;DHT22;14965;50.660;13.226;2024-02-26T01:40:44;1.50;99.90
27224;DHT22;14965;50.660;13.226;2024-02-26T01:43:10;1.50;99.90
27224;DHT22;14965;50.660;13.226;2024-02-26T01:45:35;1.50;99.90
27224;DHT22;14965;50.660;13.226;2024-02-26T01:48:01;1.50;99.90
27224;DHT22;14965;50.660;13.226;2024-02-26T01:50:27;1.40;99.90
27224;DHT22;14965;50.660;13.226;2024-02-26T01:52:54;1.40;99.90
27224;DHT22;14965;50.660;13.226;2024-02-26T01:55:24;1.40;99.90
27224;DHT22;14965;50.660;13.226;2024-02-26T01:57:52;1.40;99.90
27224;DHT22;14965;50.660;13.226;2024-02-26T02:00:20;1.30;99.90
27224;DHT22;14965;50.660;13.226;2024-02-26T02:02:47;1.30;99.90
27224;DHT22;14965;50.660;13.226;2024-02-26T02:05:15;1.30;99.90
27224;DHT22;14965;50.660;13.226;2024-02-26T02:07:42;1.20;99.90
27224;DHT22;14965;50.660;13.226;2024-02-26T02:10:09;1.20;99.90
27224;DHT22;14965;50.660;13.226;2024-02-26T02:12:37;1.20;99.90
27224;DHT22;14965;50.660;13.226;2024-02-26T02:15:03;1.10;99.90
27224;DHT22;14965;50.660;13.226;2024-02-26T02:17:30;1.00;99.90
27224;DHT22;14965;50.660;13.226;2024-02-26T02:19:57;1.00;99.90
27224;DHT22;14965;50.660;13.226;2024-02-26T02:22:24;1.00;99.90
27224;DHT22;14965;50.660;13.226;2024-02-26T02:24:52;1.00;99.90
27224;DHT22;14965;50.660;13.226;2024-02-26T02:27:18;1.10;99.90
27224;DHT22;14965;50.660;13.226;2024-02-26T02:29:45;1.10;99.90
27224;DHT22;14965;50.660;13.226;2024-02-26T02:32:11;1.10;99.90
27224;DHT22;14965;50.660;13.226;2024-02-26T02:34:39;1.00;99.90
27224;DHT22;14965;50.660;13.226;2024-02-26T02:37:05;1.00;99.90
27224;DHT22;14965;50.660;13.226;2024-02-26T02:39:32;1.00;99.90
27224;DHT22;14965;50.660;13.226;2024-02-26T02:41:58;1.10;99.90
27224;DHT22;14965;50.660;13.226;2024-02-26T02:44:24;1.00;99.90
27224;DHT22;14965;50.660;13.226;2024-02-26T02:46:50;1.00;99.90
27224;DHT22;14965;50.660;13.226;2024-02-26T02:49:16;1.00;99.90
27224;DHT22;14965;50.660;13.226;2024-02-26T02:51:42;1.00;99.90
27224;DHT22;14965;50.660;13.226;2024-02-26T02:54:07;1.00;99.90
27224;DHT22;14965;50.660;13.226;2024-02-26T02:56:35;1.00;99.90
27224;DHT22;14965;50.660;13.226;2024-02-26T02:59:01;1.10;99.90
27224;DHT22;14965;50.660;13.226;2024-02-26T03:01:27;1.10;99.90
27224;DHT22;14965;50.660;13.226;2024-02-26T03:03:53;1.00;99.90
27224;DHT22;14965;50.660;13.226;2024-02-26T03:06:19;1.10;99.90
27224;DHT22;14965;50.660;13.226;2024-02-26T03:08:45;1.20;99.90
27224;DHT22;14965;50.660;13.226;2024-02-26T03:11:13;1.30;99.90
27224;DHT22;14965;50.660;13.226;2024-02-26T03:13:40;1.50;99.90
27224;DHT22;14965;50.660;13.226;2024-02-26T03:16:07;1.60;99.90
27224;DHT22;14965;50.660;13.226;2024-02-26T03:18:33;1.70;99.90
27224;DHT22;14965;50.660;13.226;2024-02-26T03:20:59;1.90;99.90
27224;DHT22;14965;50.660;13.226;2024-02-26T03:23:24;2.00;99.90
27224;DHT22;14965;50.660;13.226;2024-02-26T03:25:50;2.00;99.90
27224;DHT22;14965;50.660;13.226;2024-02-26T03:28:16;2.00;99.90
27224;DHT22;14965;50.660;13.226;2024-02-26T03:30:43;2.00;99.90
27224;DHT22;14965;50.660;13.226;2024-02-26T03:33:09;2.00;99.90
27224;DHT22;14965;50.660;13.226;2024-02-26T03:35:35;2.00;99.90
27224;DHT22;14965;50.660;13.226;2024-02-26T03:38:01;2.00;99.90
27224;DHT22;14965;50.660;13.226;2024-02-26T03:40:27;1.90;99.90
27224;DHT22;14965;50.660;13.226;2024-02-26T03:42:53;1.90;99.90
27224;DHT22;14965;50.660;13.226;2024-02-26T03:45:19;1.90;99.90
27224;DHT22;14965;50.660;13.226;2024-02-26T03:47:46;1.90;99.90
27224;DHT22;14965;50.660;13.226;2024-02-26T03:50:12;1.90;99.90
27224;DHT22;14965;50.660;13.226;2024-02-26T03:52:38;2.00;99.90
27224;DHT22;14965;50.660;13.226;2024-02-26T03:55:05;2.00;99.90
27224;DHT22;14965;50.660;13.226;2024-02-26T03:57:31;1.90;99.90
27224;DHT22;14965;50.660;13.226;2024-02-26T03:59:57;1.90;99.90
27224;DHT22;14965;50.660;13.226;2024-02-26T04:02:22;1.80;99.90
27224;DHT22;14965;50.660;13.226;2024-02-26T04:04:50;1.80;99.90
27224;DHT22;14965;50.660;13.226;2024-02-26T04:07:16;1.90;99.90
27224;DHT22;14965;50.660;13.226;2024-02-26T04:09:42;2.00;99.90
27224;DHT22;14965;50.660;13.226;2024-02-26T04:12:08;2.10;99.90
27224;DHT22;14965;50.660;13.226;2024-02-26T04:14:35;2.20;99.90
27224;DHT22;14965;50.660;13.226;2024-02-26T04:17:01;2.20;99.90
27224;DHT22;14965;50.660;13.226;2024-02-26T04:19:27;2.20;99.90
27224;DHT22;14965;50.660;13.226;2024-02-26T04:21:54;2.20;99.90
27224;DHT22;14965;50.660;13.226;2024-02-26T04:24:21;2.20;99.90
27224;DHT22;14965;50.660;13.226;2024-02-26T04:26:46;2.20;99.90
27224;DHT22;14965;50.660;13.226;2024-02-26T04:29:12;2.30;99.90
27224;DHT22;14965;50.660;13.226;2024-02-26T04:31:38;2.30;99.90
27224;DHT22;14965;50.660;13.226;2024-02-26T04:34:04;2.40;99.90
27224;DHT22;14965;50.660;13.226;2024-02-26T04:36:30;2.40;99.90
27224;DHT22;14965;50.660;13.226;2024-02-26T04:38:57;2.40;99.90
27224;DHT22;14965;50.660;13.226;2024-02-26T04:41:23;2.50;99.90
27224;DHT22;14965;50.660;13.226;2024-02-26T04:43:49;2.50;99.90
27224;DHT22;14965;50.660;13.226;2024-02-26T04:46:15;2.50;99.90
27224;DHT22;14965;50.660;13.226;2024-02-26T04:48:41;2.50;99.90
27224;DHT22;14965;50.660;13.226;2024-02-26T04:51:07;2.40;99.90
27224;DHT22;14965;50.660;13.226;2024-02-26T04:53:33;2.40;99.90
27224;DHT22;14965;50.660;13.226;2024-02-26T04:56:00;2.40;99.90
27224;DHT22;14965;50.660;13.226;2024-02-26T04:58:26;2.30;99.90
27224;DHT22;14965;50.660;13.226;2024-02-26T05:00:52;2.30;99.90
27224;DHT22;14965;50.660;13.226;2024-02-26T05:03:18;2.20;99.90
27224;DHT22;14965;50.660;13.226;2024-02-26T05:05:44;2.00;99.90
27224;DHT22;14965;50.660;13.226;2024-02-26T05:08:10;2.10;99.90
27224;DHT22;14965;50.660;13.226;2024-02-26T05:10:37;2.10;99.90
27224;DHT22;14965;50.660;13.226;2024-02-26T05:13:04;2.10;99.90
27224;DHT22;14965;50.660;13.226;2024-02-26T05:15:30;2.10;99.90
27224;DHT22;14965;50.660;13.226;2024-02-26T05:17:56;1.90;99.90
27224;DHT22;14965;50.660;13.226;2024-02-26T05:20:22;1.90;99.90
27224;DHT22;14965;50.660;13.226;2024-02-26T05:22:48;1.90;99.90
27224;DHT22;14965;50.660;13.226;2024-02-26T05:25:15;1.90;99.90
27224;DHT22;14965;50.660;13.226;2024-02-26T05:27:41;1.90;99.90
27224;DHT22;14965;50.660;13.226;2024-02-26T05:30:11;1.90;99.90
27224;DHT22;14965;50.660;13.226;2024-02-26T05:32:37;1.90;99.90
27224;DHT22;14965;50.660;13.226;2024-02-26T05:35:04;1.90;99.90
27224;DHT22;14965;50.660;13.226;2024-02-26T05:37:30;1.90;99.90
27224;DHT22;14965;50.660;13.226;2024-02-26T05:39:56;1.90;99.90
27224;DHT22;14965;50.660;13.226;2024-02-26T05:42:22;1.90;99.90
27224;DHT22;14965;50.660;13.226;2024-02-26T05:44:48;1.90;99.90
27224;DHT22;14965;50.660;13.226;2024-02-26T05:47:15;1.90;99.90
27224;DHT22;14965;50.660;13.226;2024-02-26T05:49:41;1.90;99.90
27224;DHT22;14965;50.660;13.226;2024-02-26T05:52:07;1.90;99.90
27224;DHT22;14965;50.660;13.226;2024-02-26T05:54:33;1.90;99.90
27224;DHT22;14965;50.660;13.226;2024-02-26T05:56:59;1.90;99.90
27224;DHT22;14965;50.660;13.226;2024-02-26T05:59:25;2.00;99.90
27224;DHT22;14965;50.660;13.226;2024-02-26T06:01:51;2.10;99.90
27224;DHT22;14965;50.660;13.226;2024-02-26T06:04:18;2.20;99.90
27224;DHT22;14965;50.660;13.226;2024-02-26T06:06:44;2.20;99.90
27224;DHT22;14965;50.660;13.226;2024-02-26T06:09:10;2.30;99.90
27224;DHT22;14965;50.660;13.226;2024-02-26T06:11:36;2.40;99.90
27224;DHT22;14965;50.660;13.226;2024-02-26T06:14:02;2.50;99.90
27224;DHT22;14965;50.660;13.226;2024-02-26T06:16:27;2.60;99.90
27224;DHT22;14965;50.660;13.226;2024-02-26T06:18:53;2.60;99.90
27224;DHT22;14965;50.660;13.226;2024-02-26T06:21:21;2.70;99.90
27224;DHT22;14965;50.660;13.226;2024-02-26T06:23:47;2.80;99.90
27224;DHT22;14965;50.660;13.226;2024-02-26T06:26:12;2.80;99.90
27224;DHT22;14965;50.660;13.226;2024-02-26T06:28:38;2.90;99.90
27224;DHT22;14965;50.660;13.226;2024-02-26T06:31:04;3.00;99.90
27224;DHT22;14965;50.660;13.226;2024-02-26T06:33:30;3.10;99.90
27224;DHT22;14965;50.660;13.226;2024-02-26T06:35:56;3.10;99.90
27224;DHT22;14965;50.660;13.226;2024-02-26T06:38:23;3.20;99.90
27224;DHT22;14965;50.660;13.226;2024-02-26T06:40:49;3.20;99.90
27224;DHT22;14965;50.660;13.226;2024-02-26T06:43:15;3.30;99.90
27224;DHT22;14965;50.660;13.226;2024-02-26T06:45:41;3.40;99.90
27224;DHT22;14965;50.660;13.226;2024-02-26T06:48:07;3.40;99.90
27224;DHT22;14965;50.660;13.226;2024-02-26T06:50:33;3.40;99.90
27224;DHT22;14965;50.660;13.226;2024-02-26T06:52:59;3.40;99.90
27224;DHT22;14965;50.660;13.226;2024-02-26T06:55:26;3.50;99.90
27224;DHT22;14965;50.660;13.226;2024-02-26T06:57:52;3.40;99.90
27224;DHT22;14965;50.660;13.226;2024-02-26T07:00:19;3.50;99.90
27224;DHT22;14965;50.660;13.226;2024-02-26T07:02:45;3.50;99.90
27224;DHT22;14965;50.660;13.226;2024-02-26T07:05:11;3.60;99.90
27224;DHT22;14965;50.660;13.226;2024-02-26T07:07:37;3.60;99.90
27224;DHT22;14965;50.660;13.226;2024-02-26T07:10:03;3.70;99.90
27224;DHT22;14965;50.660;13.226;2024-02-26T07:12:30;3.80;99.90
27224;DHT22;14965;50.660;13.226;2024-02-26T07:14:56;3.90;99.90
27224;DHT22;14965;50.660;13.226;2024-02-26T07:17:22;4.00;99.90
27224;DHT22;14965;50.660;13.226;2024-02-26T07:19:49;4.10;99.90
27224;DHT22;14965;50.660;13.226;2024-02-26T07:22:14;4.10;99.90
27224;DHT22;14965;50.660;13.226;2024-02-26T07:24:40;4.20;99.90
27224;DHT22;14965;50.660;13.226;2024-02-26T07:27:06;4.30;99.90
27224;DHT22;14965;50.660;13.226;2024-02-26T07:29:34;4.30;99.90
27224;DHT22;14965;50.660;13.226;2024-02-26T07:32:00;4.40;99.90
27224;DHT22;14965;50.660;13.226;2024-02-26T07:34:26;4.40;99.90
27224;DHT22;14965;50.660;13.226;2024-02-26T07:36:52;4.40;99.90
27224;DHT22;14965;50.660;13.226;2024-02-26T07:39:18;4.50;99.90
27224;DHT22;14965;50.660;13.226;2024-02-26T07:41:44;4.50;99.90
27224;DHT22;14965;50.660;13.226;2024-02-26T07:44:10;4.60;99.90
27224;DHT22;14965;50.660;13.226;2024-02-26T07:46:37;4.60;99.90
27224;DHT22;14965;50.660;13.226;2024-02-26T07:49:03;4.70;99.90
27224;DHT22;14965;50.660;13.226;2024-02-26T07:51:29;4.70;99.90
27224;DHT22;14965;50.660;13.226;2024-02-26T07:53:54;4.70;99.90
27224;DHT22;14965;50.660;13.226;2024-02-26T07:56:20;4.80;99.90
27224;DHT22;14965;50.660;13.226;2024-02-26T07:58:46;4.90;99.90
27224;DHT22;14965;50.660;13.226;2024-02-26T08:01:13;4.90;99.90
27224;DHT22;14965;50.660;13.226;2024-02-26T08:03:40;5.00;99.90
27224;DHT22;14965;50.660;13.226;2024-02-26T08:06:08;5.10;99.90
27224;DHT22;14965;50.660;13.226;2024-02-26T08:08:34;5.10;99.90
27224;DHT22;14965;50.660;13.226;2024-02-26T08:11:00;5.20;99.90
27224;DHT22;14965;50.660;13.226;2024-02-26T08:13:26;5.20;99.90
27224;DHT22;14965;50.660;13.226;2024-02-26T08:15:52;5.20;99.90
27224;DHT22;14965;50.660;13.226;2024-02-26T08:18:18;5.30;99.90
27224;DHT22;14965;50.660;13.226;2024-02-26T08:20:46;5.30;99.90
27224;DHT22;14965;50.660;13.226;2024-02-26T08:23:12;5.40;99.90
27224;DHT22;14965;50.660;13.226;2024-02-26T08:25:38;5.40;99.90
27224;DHT22;14965;50.660;13.226;2024-02-26T08:28:04;5.40;99.90
27224;DHT22;14965;50.660;13.226;2024-02-26T08:30:31;5.50;99.90
27224;DHT22;14965;50.660;13.226;2024-02-26T08:32:57;5.50;99.90
27224;DHT22;14965;50.660;13.226;2024-02-26T08:35:23;5.50;99.90
27224;DHT22;14965;50.660;13.226;2024-02-26T08:37:50;5.50;99.90
27224;DHT22;14965;50.660;13.226;2024-02-26T08:40:16;5.60;99.90
27224;DHT22;14965;50.660;13.226;2024-02-26T08:42:42;5.70;99.90
27224;DHT22;14965;50.660;13.226;2024-02-26T08:45:09;5.70;99.90
27224;DHT22;14965;50.660;13.226;2024-02-26T08:47:35;5.70;99.90
27224;DHT22;14965;50.660;13.226;2024-02-26T08:50:01;5.70;99.90
27224;DHT22;14965;50.660;13.226;2024-02-26T08:52:27;5.70;99.90
27224;DHT22;14965;50.660;13.226;2024-02-26T08:54:54;5.80;99.90
27224;DHT22;14965;50.660;13.226;2024-02-26T08:57:40;5.80;99.90
27224;DHT22;14965;50.660;13.226;2024-02-26T09:00:07;5.90;99.90
27224;DHT22;14965;50.660;13.226;2024-02-26T09:02:35;5.90;99.90
27224;DHT22;14965;50.660;13.226;2024-02-26T09:05:00;6.00;99.90
27224;DHT22;14965;50.660;13.226;2024-02-26T09:07:26;6.00;99.90
27224;DHT22;14965;50.660;13.226;2024-02-26T09:09:54;6.00;99.90
27224;DHT22;14965;50.660;13.226;2024-02-26T09:12:20;6.10;99.90
27224;DHT22;14965;50.660;13.226;2024-02-26T09:14:46;6.10;99.90
27224;DHT22;14965;50.660;13.226;2024-02-26T09:17:12;6.20;99.90
27224;DHT22;14965;50.660;13.226;2024-02-26T09:19:38;6.30;99.90
27224;DHT22;14965;50.660;13.226;2024-02-26T09:22:04;6.30;99.90
27224;DHT22;14965;50.660;13.226;2024-02-26T09:24:30;6.40;99.90
27224;DHT22;14965;50.660;13.226;2024-02-26T09:26:57;6.50;99.90
27224;DHT22;14965;50.660;13.226;2024-02-26T09:29:23;6.70;99.90
27224;DHT22;14965;50.660;13.226;2024-02-26T09:31:49;6.80;99.90
27224;DHT22;14965;50.660;13.226;2024-02-26T09:34:15;6.80;99.90
27224;DHT22;14965;50.660;13.226;2024-02-26T09:36:41;6.90;99.90
27224;DHT22;14965;50.660;13.226;2024-02-26T09:39:07;6.90;99.90
27224;DHT22;14965;50.660;13.226;2024-02-26T09:41:33;7.00;99.90
27224;DHT22;14965;50.660;13.226;2024-02-26T09:44:02;7.00;99.90
27224;DHT22;14965;50.660;13.226;2024-02-26T09:46:30;7.10;99.90
27224;DHT22;14965;50.660;13.226;2024-02-26T09:48:57;7.10;99.90
27224;DHT22;14965;50.660;13.226;2024-02-26T09:51:23;7.30;99.90
27224;DHT22;14965;50.660;13.226;2024-02-26T09:53:52;7.40;99.90
27224;DHT22;14965;50.660;13.226;2024-02-26T09:56:18;7.40;99.90
27224;DHT22;14965;50.660;13.226;2024-02-26T09:58:45;7.40;99.90
27224;DHT22;14965;50.660;13.226;2024-02-26T10:01:17;7.50;99.90
27224;DHT22;14965;50.660;13.226;2024-02-26T10:03:44;7.50;99.90
27224;DHT22;14965;50.660;13.226;2024-02-26T10:06:13;7.50;99.90
27224;DHT22;14965;50.660;13.226;2024-02-26T10:08:42;7.60;99.90
27224;DHT22;14965;50.660;13.226;2024-02-26T10:11:08;7.70;99.90
27224;DHT22;14965;50.660;13.226;2024-02-26T10:13:35;7.80;99.90
27224;DHT22;14965;50.660;13.226;2024-02-26T10:16:02;7.90;99.90
27224;DHT22;14965;50.660;13.226;2024-02-26T10:18:45;8.00;99.90
27224;DHT22;14965;50.660;13.226;2024-02-26T10:21:11;8.00;99.90
27224;DHT22;14965;50.660;13.226;2024-02-26T10:23:37;8.10;99.90
27224;DHT22;14965;50.660;13.226;2024-02-26T10:26:03;8.10;99.90
27224;DHT22;14965;50.660;13.226;2024-02-26T10:28:30;8.20;99.90
27224;DHT22;14965;50.660;13.226;2024-02-26T10:30:57;8.20;99.90
27224;DHT22;14965;50.660;13.226;2024-02-26T10:33:24;8.20;99.90
27224;DHT22;14965;50.660;13.226;2024-02-26T10:35:54;8.10;99.90
27224;DHT22;14965;50.660;13.226;2024-02-26T10:38:19;8.10;99.90
27224;DHT22;14965;50.660;13.226;2024-02-26T10:40:45;8.10;99.90
27224;DHT22;14965;50.660;13.226;2024-02-26T10:43:11;8.30;99.90
27224;DHT22;14965;50.660;13.226;2024-02-26T10:45:37;8.30;99.90
27224;DHT22;14965;50.660;13.226;2024-02-26T10:48:04;8.40;99.90
27224;DHT22;14965;50.660;13.226;2024-02-26T10:50:35;8.50;99.90
27224;DHT22;14965;50.660;13.226;2024-02-26T10:53:04;8.50;99.90
27224;DHT22;14965;50.660;13.226;2024-02-26T10:55:39;8.60;99.90
27224;DHT22;14965;50.660;13.226;2024-02-26T10:58:07;8.60;99.90
27224;DHT22;14965;50.660;13.226;2024-02-26T11:00:38;8.70;99.90
27224;DHT22;14965;50.660;13.226;2024-02-26T11:03:06;8.80;99.90
27224;DHT22;14965;50.660;13.226;2024-02-26T11:05:34;8.80;99.90
27224;DHT22;14965;50.660;13.226;2024-02-26T11:08:03;8.90;99.90
27224;DHT22;14965;50.660;13.226;2024-02-26T11:10:30;8.90;99.90
27224;DHT22;14965;50.660;13.226;2024-02-26T11:12:59;8.70;99.90
27224;DHT22;14965;50.660;13.226;2024-02-26T11:15:28;8.80;99.90
27224;DHT22;14965;50.660;13.226;2024-02-26T11:17:55;8.80;99.90
27224;DHT22;14965;50.660;13.226;2024-02-26T11:20:23;8.80;99.90
27224;DHT22;14965;50.660;13.226;2024-02-26T11:22:49;8.80;99.90
27224;DHT22;14965;50.660;13.226;2024-02-26T11:25:16;8.80;99.90
27224;DHT22;14965;50.660;13.226;2024-02-26T11:27:46;8.70;99.90
27224;DHT22;14965;50.660;13.226;2024-02-26T11:30:17;8.70;99.90
27224;DHT22;14965;50.660;13.226;2024-02-26T11:32:44;8.60;99.90
27224;DHT22;14965;50.660;13.226;2024-02-26T11:35:10;8.60;99.90
27224;DHT22;14965;50.660;13.226;2024-02-26T11:37:37;8.50;99.90
27224;DHT22;14965;50.660;13.226;2024-02-26T11:40:03;8.40;99.90
27224;DHT22;14965;50.660;13.226;2024-02-26T11:42:43;8.30;99.90
27224;DHT22;14965;50.660;13.226;2024-02-26T11:48:23;8.30;99.90
27224;DHT22;14965;50.660;13.226;2024-02-26T11:50:51;8.40;99.90
27224;DHT22;14965;50.660;13.226;2024-02-26T11:53:22;8.50;99.90
27224;DHT22;14965;50.660;13.226;2024-02-26T11:56:15;8.50;99.90
27224;DHT22;14965;50.660;13.226;2024-02-26T11:58:47;8.50;99.90
27224;DHT22;14965;50.660;13.226;2024-02-26T12:01:37;8.50;99.90
27224;DHT22;14965;50.660;13.226;2024-02-26T12:04:08;8.30;99.90
27224;DHT22;14965;50.660;13.226;2024-02-26T12:06:43;8.20;99.90
27224;DHT22;14965;50.660;13.226;2024-02-26T12:09:10;8.20;99.90
27224;DHT22;14965;50.660;13.226;2024-02-26T12:11:37;8.10;99.90
27224;DHT22;14965;50.660;13.226;2024-02-26T12:14:06;8.20;99.90
27224;DHT22;14965;50.660;13.226;2024-02-26T12:16:37;8.20;99.90
27224;DHT22;14965;50.660;13.226;2024-02-26T12:19:05;8.20;99.90
27224;DHT22;14965;50.660;13.226;2024-02-26T12:21:34;8.10;99.90
27224;DHT22;14965;50.660;13.226;2024-02-26T12:24:10;8.10;99.90
27224;DHT22;14965;50.660;13.226;2024-02-26T12:26:37;8.10;99.90
27224;DHT22;14965;50.660;13.226;2024-02-26T12:29:02;8.00;99.90
27224;DHT22;14965;50.660;13.226;2024-02-26T12:31:30;8.10;99.90
27224;DHT22;14965;50.660;13.226;2024-02-26T12:33:57;8.00;99.90
27224;DHT22;14965;50.660;13.226;2024-02-26T12:36:23;8.00;99.90
27224;DHT22;14965;50.660;13.226;2024-02-26T12:38:49;7.80;99.90
27224;DHT22;14965;50.660;13.226;2024-02-26T12:41:16;7.90;99.90
27224;DHT22;14965;50.660;13.226;2024-02-26T12:43:42;7.80;99.90
27224;DHT22;14965;50.660;13.226;2024-02-26T12:46:08;7.80;99.90
27224;DHT22;14965;50.660;13.226;2024-02-26T12:48:35;7.80;99.90
27224;DHT22;14965;50.660;13.226;2024-02-26T12:51:01;7.80;99.90
27224;DHT22;14965;50.660;13.226;2024-02-26T12:53:27;7.80;99.90
27224;DHT22;14965;50.660;13.226;2024-02-26T12:55:53;7.70;99.90
27224;DHT22;14965;50.660;13.226;2024-02-26T12:58:20;7.70;99.90
27224;DHT22;14965;50.660;13.226;2024-02-26T13:00:47;7.70;99.90
27224;DHT22;14965;50.660;13.226;2024-02-26T13:03:13;7.70;99.90
27224;DHT22;14965;50.660;13.226;2024-02-26T13:05:41;7.70;99.90
27224;DHT22;14965;50.660;13.226;2024-02-26T13:08:10;7.70;99.90
27224;DHT22;14965;50.660;13.226;2024-02-26T13:10:43;7.70;99.90
27224;DHT22;14965;50.660;13.226;2024-02-26T13:13:10;7.70;99.90
27224;DHT22;14965;50.660;13.226;2024-02-26T13:15:36;7.70;99.90
27224;DHT22;14965;50.660;13.226;2024-02-26T13:18:10;7.60;99.90
27224;DHT22;14965;50.660;13.226;2024-02-26T13:20:37;7.70;99.90
27224;DHT22;14965;50.660;13.226;2024-02-26T13:23:05;7.60;99.90
27224;DHT22;14965;50.660;13.226;2024-02-26T13:25:33;7.60;99.90
27224;DHT22;14965;50.660;13.226;2024-02-26T13:28:11;7.60;99.90
27224;DHT22;14965;50.660;13.226;2024-02-26T13:30:39;7.70;99.90
27224;DHT22;14965;50.660;13.226;2024-02-26T13:33:09;7.70;99.90
27224;DHT22;14965;50.660;13.226;2024-02-26T13:35:36;7.70;99.90
27224;DHT22;14965;50.660;13.226;2024-02-26T13:38:04;7.70;99.90
27224;DHT22;14965;50.660;13.226;2024-02-26T13:40:30;7.70;99.90
27224;DHT22;14965;50.660;13.226;2024-02-26T13:42:56;7.70;99.90
27224;DHT22;14965;50.660;13.226;2024-02-26T13:45:22;7.70;99.90
27224;DHT22;14965;50.660;13.226;2024-02-26T13:47:48;7.70;99.90
27224;DHT22;14965;50.660;13.226;2024-02-26T13:50:14;7.70;99.90
27224;DHT22;14965;50.660;13.226;2024-02-26T13:52:39;7.80;99.90
27224;DHT22;14965;50.660;13.226;2024-02-26T13:55:07;7.80;99.90
27224;DHT22;14965;50.660;13.226;2024-02-26T13:57:33;7.80;99.90
27224;DHT22;14965;50.660;13.226;2024-02-26T13:59:59;7.80;99.90
27224;DHT22;14965;50.660;13.226;2024-02-26T14:02:25;7.80;99.90
27224;DHT22;14965;50.660;13.226;2024-02-26T14:04:51;7.80;99.90
27224;DHT22;14965;50.660;13.226;2024-02-26T14:07:17;7.80;99.90
27224;DHT22;14965;50.660;13.226;2024-02-26T14:09:43;7.80;99.90
27224;DHT22;14965;50.660;13.226;2024-02-26T14:12:10;7.80;99.90
27224;DHT22;14965;50.660;13.226;2024-02-26T14:14:36;7.70;99.90
27224;DHT22;14965;50.660;13.226;2024-02-26T14:17:02;7.60;99.90
27224;DHT22;14965;50.660;13.226;2024-02-26T14:19:28;7.60;99.90
27224;DHT22;14965;50.660;13.226;2024-02-26T14:21:54;7.70;99.90
27224;DHT22;14965;50.660;13.226;2024-02-26T14:24:20;7.70;99.90
27224;DHT22;14965;50.660;13.226;2024-02-26T14:26:46;7.70;99.90
27224;DHT22;14965;50.660;13.226;2024-02-26T14:29:13;7.70;99.90
27224;DHT22;14965;50.660;13.226;2024-02-26T14:31:39;7.50;99.90
27224;DHT22;14965;50.660;13.226;2024-02-26T14:34:05;7.40;99.90
27224;DHT22;14965;50.660;13.226;2024-02-26T14:36:31;7.40;99.90
27224;DHT22;14965;50.660;13.226;2024-02-26T14:38:57;7.30;99.90
27224;DHT22;14965;50.660;13.226;2024-02-26T14:41:22;7.20;99.90
27224;DHT22;14965;50.660;13.226;2024-02-26T14:43:48;7.10;99.90
27224;DHT22;14965;50.660;13.226;2024-02-26T14:46:16;7.10;99.90
27224;DHT22;14965;50.660;13.226;2024-02-26T14:48:41;7.10;99.90
27224;DHT22;14965;50.660;13.226;2024-02-26T14:51:07;7.10;99.90
27224;DHT22;14965;50.660;13.226;2024-02-26T14:53:33;7.10;99.90
27224;DHT22;14965;50.660;13.226;2024-02-26T14:55:59;7.10;99.90
27224;DHT22;14965;50.660;13.226;2024-02-26T14:58:25;7.20;99.90
27224;DHT22;14965;50.660;13.226;2024-02-26T15:00:51;7.10;99.90
27224;DHT22;14965;50.660;13.226;2024-02-26T15:03:18;7.20;99.90
27224;DHT22;14965;50.660;13.226;2024-02-26T15:05:44;7.10;99.90
27224;DHT22;14965;50.660;13.226;2024-02-26T15:08:10;7.10;99.90
27224;DHT22;14965;50.660;13.226;2024-02-26T15:10:36;7.10;99.90
27224;DHT22;14965;50.660;13.226;2024-02-26T15:13:02;7.10;99.90
27224;DHT22;14965;50.660;13.226;2024-02-26T15:15:27;7.00;99.90
27224;DHT22;14965;50.660;13.226;2024-02-26T15:17:53;7.00;99.90
27224;DHT22;14965;50.660;13.226;2024-02-26T15:20:22;7.00;99.90
27224;DHT22;14965;50.660;13.226;2024-02-26T15:22:48;7.00;99.90
27224;DHT22;14965;50.660;13.226;2024-02-26T15:25:14;6.90;99.90
27224;DHT22;14965;50.660;13.226;2024-02-26T15:27:39;6.90;99.90
27224;DHT22;14965;50.660;13.226;2024-02-26T15:30:06;6.90;99.90